Millington, Tennessee
Current Conditions -  °F | °C
As of 3:50 PM on Monday 24 Nov 2014 (Local Time) from KNQA Reporting Station
Scattered Clouds Scattered Clouds  
Wind Chill: 55°   Ceiling: Unl
Heat Index: 55°   Visibility: 10mi
Dew Point: 36°   Wind: 13mph
Humidity: 47%   Direction: 240°WSW
Pressure: 29.92"   Gusts: NA
Location:  35.34°N, 89.9°W
Report Text: KNQA 242150Z 24011KT 10SM SCT150 13/02 A2992
Loading
Personal Weather Stations






























Interactive Weather Map New forecast layout! Learn more

10-Day Weather Forecast

Advertisements
Track Severe Weather on mobile